Nuevo, CA (92567)

1:12 AM PST on January 31, 2015 (GMT -0800)
Intelsat Riverside Teleport | Change Station
CLOSE
Current Station
Personal Weather Station
Location: Nuevo, CA
Elevation: 1867 ft
Nearby Weather Stations

Elev 1867 ft 33.80 °N, 117.09 °W | Updated 4 seconds ago

Overcast
Overcast
50.3 °F
Feels Like 50.3 °F
N
3.1
Wind Variable Wind from SW
Gusts 0.0 mph

Today
High -- | Low -- °F
--% Chance of Precip.
Yesterday
High -- | Low -- °F
Precip. -- in
6:45 AM 5:18 PM
Waxing Gibbous, 88% visible
Pressure 29.86 in
Visibility 10.0 miles
Clouds Overcast 13000 ft
Dew Point 50 °F
Humidity 98%
Rainfall 0.00 in
Snow Depth Not available.
UV 0.0 out of 12
Pollen 1.60 out of 12
Air Quality Not available.
Flu Activity Not available.
METAR KRIV 310858Z AUTO 08002KT 10SM OVC130 11/11 A2987 RMK AO2 CIG 008 RWY14 SLP110 T01100110 57006

More Conditions Fewer Conditions

Pressure 29.86 in
Visibility 10.0 miles
Clouds Overcast 13000 ft
Dew Point 50 °F
Humidity 98%
Rainfall 0.00 in
Snow Depth Not available.
UV 0.0 out of 12
Pollen 1.60 out of 12
Air Quality Not available.
Flu Activity Not available.
METAR KRIV 310858Z AUTO 08002KT 10SM OVC130 11/11 A2987 RMK AO2 CIG 008 RWY14 SLP110 T01100110 57006

More Conditions Fewer Conditions

10-Day Weather Forecast

Almanac

Astronomy

Jan. 31, 2015 Rise Set
Actual Time
Civil Twilight
Nautical Twilight
Astronomical Twilight
Moon
Length of Visible Light
Length of Day
Tomorrow will be .
, % of the Moon is Illuminated

Today's Extremes

State Highs State Lows

Community

WunderPhotos

Upload Photos

1,792,021 photos uploaded!

WunderBlogs® & News

Nearby

Air Quality

  Air Quality AQ Index Pollutant
Not available.

Snow Depth

Station Depth Elevation

Earthquake Activity

City Distance Mag. Time & Date
Minimum magnitude displayed is 2.5.

Coastal Water Temperatures

Place Temperature

Nearby Weather Stations